Archival Weather

Norman Y Mineta San Jose Intl

San Jose, California (KSJC)

Report from: Saturday, February 17, 2024 2:53 AM PST
Current time: Monday, June 24, 2024 2:57 AM PDT

Current weather – Weather history – Daily summaries
Weather forecast

Temperature12.8°C (55.0°F)
Dew point7.2°C (45.0°F)
Winds 5 kts (2.6 m/s, 5.8 mph) South (190°)
Visibility10 mi. (16.1 km)
Clouds Sky clear
Altimeter30.02 in.Hg (1017 mB)
Relative humidity69 %
Density altitude-222 ft. (-68 m)
Sea-level pressure101.6 kPa (1016 mB, 30.01 in.Hg)
Remarks Fully automated report
Automated weather observing station with precipitation discriminator
Flight conditions Visual Meteorological Conditions
Raw dataKSJC 171053Z AUTO 19005KT 10SM CLR 13/07 A3002 RMK AO2 SLP164 T01280072
An error has occurred. This application may no longer respond until reloaded. Reload 🗙